createdAt,value
2024-04-18T00:01:05.719Z,98687.22
2024-04-18T00:03:32.617Z,98700.56
2024-04-18T00:05:59.313Z,98691.44
2024-04-18T00:08:25.952Z,98701.31
2024-04-18T00:10:55.871Z,98694.16
2024-04-18T00:13:22.585Z,98696.19
2024-04-18T00:15:49.283Z,98697.84
2024-04-18T00:18:16.037Z,98703.97
2024-04-18T00:20:45.560Z,98697.94
2024-04-18T00:23:12.224Z,98703.25
2024-04-18T00:25:38.782Z,98699.34
2024-04-18T00:28:05.695Z,98706.50
2024-04-18T00:30:32.462Z,98711.38
2024-04-18T00:32:59.171Z,98704.47
2024-04-18T00:35:25.814Z,98703.88
2024-04-18T00:37:52.487Z,98703.06
2024-04-18T00:40:19.289Z,98700.63
2024-04-18T00:42:46.203Z,98705.16
2024-04-18T00:45:12.846Z,98706.50
2024-04-18T00:47:40.595Z,98701.09
2024-04-18T00:50:11.191Z,98709.06
2024-04-18T00:52:38.695Z,98717.31
2024-04-18T00:55:08.939Z,98713.88
2024-04-18T00:57:40.596Z,98712.13
2024-04-18T01:00:08.331Z,98714.94
2024-04-18T01:02:35.327Z,98711.63
2024-04-18T01:05:03.543Z,98715.13
2024-04-18T01:07:30.276Z,98704.78
2024-04-18T01:09:57.043Z,98716.03
2024-04-18T01:12:23.867Z,98707.72
2024-04-18T01:14:50.447Z,98713.91
2024-04-18T01:17:17.272Z,98716.47
2024-04-18T01:19:44.104Z,98717.69
2024-04-18T01:22:10.814Z,98721.69
2024-04-18T01:24:37.521Z,98721.97
2024-04-18T01:27:04.661Z,98721.44
2024-04-18T01:29:31.268Z,98716.78
2024-04-18T01:31:57.913Z,98721.72
2024-04-18T01:34:24.704Z,98725.91
2024-04-18T01:36:52.899Z,98732.91
2024-04-18T01:39:20.350Z,98734.16
2024-04-18T01:41:47.052Z,98730.88
2024-04-18T01:44:13.820Z,98734.78
2024-04-18T01:46:40.545Z,98737.34
2024-04-18T01:49:07.227Z,98734.78
2024-04-18T01:51:33.960Z,98736.53
2024-04-18T01:54:00.689Z,98739.06
2024-04-18T01:56:27.389Z,98749.41
2024-04-18T01:58:54.029Z,98741.63
2024-04-18T02:01:25.436Z,98753.00
2024-04-18T02:03:52.183Z,98740.06
2024-04-18T02:06:19.049Z,98750.63
2024-04-18T02:08:45.783Z,98749.19
2024-04-18T02:11:12.444Z,98759.56
2024-04-18T02:13:39.278Z,98755.81
2024-04-18T02:16:06.387Z,98753.84
2024-04-18T02:18:33.146Z,98755.59
2024-04-18T02:20:59.870Z,98755.66
2024-04-18T02:23:27.527Z,98762.16
2024-04-18T02:25:54.246Z,98762.22
2024-04-18T02:28:21.221Z,98763.66
2024-04-18T02:30:48.279Z,98758.91
2024-04-18T02:33:17.771Z,98761.91
2024-04-18T02:35:46.171Z,98765.84
2024-04-18T02:38:12.790Z,98764.19
2024-04-18T02:40:39.433Z,98768.47
2024-04-18T02:43:06.033Z,98771.84
2024-04-18T02:45:32.799Z,98776.47
2024-04-18T02:47:59.535Z,98769.16
2024-04-18T02:50:26.157Z,98773.00
2024-04-18T02:52:52.890Z,98783.03
2024-04-18T02:55:19.505Z,98781.91
2024-04-18T02:57:46.296Z,98770.28
2024-04-18T03:00:13.294Z,98778.38
2024-04-18T03:02:40.003Z,98782.75
2024-04-18T03:05:06.888Z,98789.28
2024-04-18T03:07:33.578Z,98781.91
2024-04-18T03:10:02.956Z,98782.72
2024-04-18T03:12:30.390Z,98784.38
2024-04-18T03:14:57.244Z,98794.09
2024-04-18T03:17:23.879Z,98795.31
2024-04-18T03:19:50.601Z,98790.53
2024-04-18T03:22:17.659Z,98787.75
2024-04-18T03:24:44.440Z,98791.66
2024-04-18T03:27:11.175Z,98795.88
2024-04-18T03:29:37.798Z,98794.47
2024-04-18T03:32:05.335Z,98799.44
2024-04-18T03:34:32.143Z,98801.84
2024-04-18T03:36:58.972Z,98801.16
2024-04-18T03:39:29.656Z,98800.94
2024-04-18T03:41:56.286Z,98804.84
2024-04-18T03:44:23.124Z,98799.00
2024-04-18T03:46:49.894Z,98804.28
2024-04-18T03:49:17.072Z,98799.00
2024-04-18T03:51:43.791Z,98802.56
2024-04-18T03:54:10.519Z,98813.19
2024-04-18T03:56:37.224Z,98811.38
2024-04-18T03:59:04.054Z,98820.31
2024-04-18T04:01:31.003Z,98819.56
2024-04-18T04:03:58.515Z,98826.25
2024-04-18T04:06:25.489Z,98828.56
2024-04-18T04:08:52.219Z,98822.28
2024-04-18T04:11:19.596Z,98830.31
2024-04-18T04:13:46.743Z,98829.50
2024-04-18T04:16:13.699Z,98834.34
2024-04-18T04:18:40.591Z,98837.91
2024-04-18T04:21:08.901Z,98838.44
2024-04-18T04:23:36.135Z,98844.63
2024-04-18T04:26:03.109Z,98848.06
2024-04-18T04:28:29.699Z,98852.81
2024-04-18T04:30:56.403Z,98857.19
2024-04-18T04:33:23.178Z,98862.47
2024-04-18T04:35:49.829Z,98868.06
2024-04-18T04:38:16.479Z,98860.94
2024-04-18T04:40:43.189Z,98870.03
2024-04-18T04:43:09.789Z,98877.44
2024-04-18T04:45:36.438Z,98878.06
2024-04-18T04:48:03.557Z,98880.22
2024-04-18T04:50:30.352Z,98884.47
2024-04-18T04:52:56.930Z,98887.06
2024-04-18T04:55:23.623Z,98883.00
2024-04-18T04:57:50.347Z,98894.09
2024-04-18T05:00:17.259Z,98897.06
2024-04-18T05:02:45.173Z,98905.03
2024-04-18T05:05:13.280Z,98901.69
2024-04-18T05:07:39.907Z,98898.97
2024-04-18T05:10:07.540Z,98901.09
2024-04-18T05:12:34.273Z,98909.16
2024-04-18T05:15:01.287Z,98908.44
2024-04-18T05:17:28.228Z,98911.59
2024-04-18T05:19:54.854Z,98918.47
2024-04-18T05:22:21.452Z,98913.84
2024-04-18T05:24:48.159Z,98919.97
2024-04-18T05:27:14.933Z,98923.19
2024-04-18T05:30:00.430Z,98922.28
2024-04-18T05:32:27.688Z,98930.75
2024-04-18T05:34:54.476Z,98940.31
2024-04-18T05:37:23.121Z,98943.44
2024-04-18T05:39:50.479Z,98945.94
2024-04-18T05:42:17.420Z,98943.88
2024-04-18T05:44:44.692Z,98944.25
2024-04-18T05:47:11.453Z,98954.53
2024-04-18T05:49:38.136Z,98957.97
2024-04-18T05:52:05.209Z,98957.63
2024-04-18T05:54:33.114Z,98965.44
2024-04-18T05:56:59.764Z,98969.81
2024-04-18T05:59:26.408Z,98970.47
2024-04-18T06:01:53.055Z,98977.44
2024-04-18T06:04:19.849Z,98980.00
2024-04-18T06:06:47.262Z,98979.47
2024-04-18T06:09:14.023Z,98982.09
2024-04-18T06:11:44.560Z,98983.03
2024-04-18T06:14:11.397Z,98984.06
2024-04-18T06:16:38.587Z,98989.06
2024-04-18T06:19:05.333Z,98990.38
2024-04-18T06:21:32.126Z,98990.91
2024-04-18T06:23:58.900Z,98992.31
2024-04-18T06:26:25.627Z,99003.63
2024-04-18T06:28:52.561Z,99006.03
2024-04-18T06:31:19.865Z,99012.13
2024-04-18T06:33:47.309Z,99015.78
2024-04-18T06:36:14.216Z,99014.09
2024-04-18T06:38:40.901Z,99015.16
2024-04-18T06:41:07.778Z,99025.09
2024-04-18T06:43:34.943Z,99029.78
2024-04-18T06:46:02.096Z,99028.91
2024-04-18T06:48:30.339Z,99037.00
2024-04-18T06:50:57.307Z,99035.41
2024-04-18T06:53:24.031Z,99029.56
2024-04-18T06:55:50.871Z,99042.03
2024-04-18T06:58:17.870Z,99044.06
2024-04-18T07:00:44.908Z,99047.03
2024-04-18T07:03:13.924Z,99049.50
2024-04-18T07:05:40.953Z,99051.75
2024-04-18T07:08:07.825Z,99044.53
2024-04-18T07:10:35.340Z,99052.00
2024-04-18T07:13:02.266Z,99056.22
2024-04-18T07:15:29.012Z,99063.13
2024-04-18T07:17:58.042Z,99068.22
2024-04-18T07:20:26.697Z,99078.34
2024-04-18T07:22:54.891Z,99070.44
2024-04-18T07:25:21.550Z,99074.38
2024-04-18T07:27:49.642Z,99082.16
2024-04-18T07:30:16.990Z,99091.16
2024-04-18T07:32:44.526Z,99094.63
2024-04-18T07:35:11.403Z,99099.09
2024-04-18T07:37:38.123Z,99097.28
2024-04-18T07:40:12.542Z,99098.25
2024-04-18T07:42:39.985Z,99100.53
2024-04-18T07:45:06.902Z,99105.56
2024-04-18T07:47:34.069Z,99103.28
2024-04-18T07:50:01.391Z,99111.00
2024-04-18T07:52:28.164Z,99103.59
2024-04-18T07:54:54.953Z,99111.72
2024-04-18T07:57:22.186Z,99109.91
2024-04-18T07:59:50.171Z,99111.50
2024-04-18T08:02:19.249Z,99113.06
2024-04-18T08:04:55.301Z,99120.34
2024-04-18T08:07:29.091Z,99124.84
2024-04-18T08:10:00.952Z,99128.94
2024-04-18T08:12:34.741Z,99128.00
2024-04-18T08:15:11.226Z,99131.78
2024-04-18T08:17:41.557Z,99133.44
2024-04-18T08:20:09.065Z,99142.91
2024-04-18T08:22:35.786Z,99141.06
2024-04-18T08:25:04.304Z,99151.66
2024-04-18T08:27:33.369Z,99151.53
2024-04-18T08:30:00.222Z,99155.53
2024-04-18T08:32:26.909Z,99156.16
2024-04-18T08:34:53.778Z,99166.31
2024-04-18T08:37:21.300Z,99166.66
2024-04-18T08:39:47.903Z,99160.81
2024-04-18T08:42:23.708Z,99163.81
2024-04-18T08:44:56.452Z,99163.66
2024-04-18T08:47:28.087Z,99176.13
2024-04-18T08:49:56.351Z,99169.13
2024-04-18T08:52:23.390Z,99163.50
2024-04-18T08:54:50.196Z,99170.41
2024-04-18T08:57:22.943Z,99177.25
2024-04-18T08:59:59.530Z,99178.25
2024-04-18T09:02:27.567Z,99182.72
2024-04-18T09:04:55.170Z,99175.94
2024-04-18T09:07:22.202Z,99179.25
2024-04-18T09:09:50.579Z,99181.41
2024-04-18T09:12:17.545Z,99175.97
2024-04-18T09:14:44.332Z,99184.34
2024-04-18T09:17:15.391Z,99184.72
2024-04-18T09:19:42.085Z,99193.16
2024-04-18T09:22:08.767Z,99195.69
2024-04-18T09:24:38.641Z,99203.66
2024-04-18T09:27:05.516Z,99201.84
2024-04-18T09:29:32.199Z,99197.84
2024-04-18T09:32:01.673Z,99201.94
2024-04-18T09:34:32.153Z,99200.19
2024-04-18T09:37:06.248Z,99207.91
2024-04-18T09:39:35.690Z,99203.13
2024-04-18T09:42:31.921Z,99202.00
2024-04-18T09:45:05.459Z,99200.34
2024-04-18T09:47:34.065Z,99205.69
2024-04-18T09:50:01.530Z,99208.47
2024-04-18T09:52:30.297Z,99206.25
2024-04-18T09:54:58.597Z,99216.81
2024-04-18T09:57:28.600Z,99213.03
2024-04-18T09:59:56.540Z,99211.59
2024-04-18T10:02:24.806Z,99204.38
2024-04-18T10:04:52.638Z,99214.13
2024-04-18T10:07:25.061Z,99221.63
2024-04-18T10:09:54.880Z,99213.94
2024-04-18T10:12:23.120Z,99214.00
2024-04-18T10:14:52.421Z,99225.91
2024-04-18T10:17:32.408Z,99226.28
2024-04-18T10:20:06.734Z,99229.16
2024-04-18T10:22:45.573Z,99222.34
2024-04-18T10:25:20.729Z,99237.25
2024-04-18T10:27:47.578Z,99230.53
2024-04-18T10:30:19.699Z,99226.44
2024-04-18T10:32:49.968Z,99234.88
2024-04-18T10:35:18.164Z,99229.88
2024-04-18T10:37:51.918Z,99232.44
2024-04-18T10:40:18.717Z,99239.56
2024-04-18T10:42:45.372Z,99236.50
2024-04-18T10:45:15.530Z,99237.84
2024-04-18T10:47:45.007Z,99248.91
2024-04-18T10:50:11.818Z,99247.97
2024-04-18T10:52:38.460Z,99248.34
2024-04-18T10:55:05.738Z,99253.31
2024-04-18T10:57:32.713Z,99251.00
2024-04-18T11:00:00.238Z,99252.50
2024-04-18T11:02:29.198Z,99259.06
2024-04-18T11:04:56.360Z,99251.56
2024-04-18T11:07:23.027Z,99236.25
2024-04-18T11:09:49.762Z,99242.91
2024-04-18T11:12:17.342Z,99240.91
2024-04-18T11:14:44.182Z,99233.72
2024-04-18T11:17:11.197Z,99235.38
2024-04-18T11:19:38.383Z,99246.25
2024-04-18T11:22:05.543Z,99255.47
2024-04-18T11:24:32.434Z,99257.41
2024-04-18T11:27:02.769Z,99254.94
2024-04-18T11:29:29.684Z,99257.06
2024-04-18T11:32:12.023Z,99249.84
2024-04-18T11:34:39.990Z,99253.94
2024-04-18T11:37:08.841Z,99253.97
2024-04-18T11:39:35.678Z,99237.06
2024-04-18T11:42:02.574Z,99236.47
2024-04-18T11:44:30.629Z,99241.31
2024-04-18T11:46:57.642Z,99242.84
2024-04-18T11:49:24.407Z,99242.22
2024-04-18T11:51:51.178Z,99239.91
2024-04-18T11:54:17.923Z,99240.22
2024-04-18T11:56:44.786Z,99235.88
2024-04-18T11:59:11.499Z,99238.72
2024-04-18T12:01:38.128Z,99232.53
2024-04-18T12:04:05.092Z,99232.16
2024-04-18T12:06:32.204Z,99231.56
2024-04-18T12:08:59.032Z,99234.97
2024-04-18T12:11:25.866Z,99237.09
2024-04-18T12:13:55.690Z,99237.81
2024-04-18T12:16:23.712Z,99234.13
2024-04-18T12:18:51.769Z,99236.44
2024-04-18T12:21:18.425Z,99231.28
2024-04-18T12:23:45.045Z,99231.97
2024-04-18T12:26:13.572Z,99237.50
2024-04-18T12:28:40.404Z,99239.53
2024-04-18T12:31:07.135Z,99237.91
2024-04-18T12:33:33.828Z,99244.25
2024-04-18T12:36:00.796Z,99236.72
2024-04-18T12:38:27.489Z,99237.06
2024-04-18T12:40:54.102Z,99248.22
2024-04-18T12:43:20.795Z,99243.84
2024-04-18T12:45:47.952Z,99242.16
2024-04-18T12:48:14.919Z,99232.06
2024-04-18T12:50:41.906Z,99238.91
2024-04-18T12:53:08.610Z,99253.75
2024-04-18T12:55:36.878Z,99257.56
2024-04-18T12:58:03.952Z,99254.53
2024-04-18T13:00:30.876Z,99251.00
2024-04-18T13:02:57.623Z,99259.13
2024-04-18T13:05:24.815Z,99254.69
2024-04-18T13:07:53.238Z,99263.94
2024-04-18T13:10:20.535Z,99269.19
2024-04-18T13:12:47.184Z,99274.16
2024-04-18T13:15:14.614Z,99282.44
2024-04-18T13:17:41.396Z,99269.50
2024-04-18T13:20:08.539Z,99279.72
2024-04-18T13:22:35.168Z,99268.41
2024-04-18T13:25:01.822Z,99260.47
2024-04-18T13:27:31.084Z,99258.16
2024-04-18T13:29:58.892Z,99251.59
2024-04-18T13:32:25.882Z,99249.59
2024-04-18T13:34:54.431Z,99253.00
2024-04-18T13:37:21.676Z,99261.94
2024-04-18T13:39:52.198Z,99268.03
2024-04-18T13:42:19.400Z,99268.19
2024-04-18T13:44:46.253Z,99275.53
2024-04-18T13:47:13.278Z,99291.59
2024-04-18T13:49:40.041Z,99281.84
2024-04-18T13:52:07.607Z,99279.88
2024-04-18T13:54:35.936Z,99282.09
2024-04-18T13:57:06.282Z,99271.13
2024-04-18T13:59:33.471Z,99274.34
2024-04-18T14:02:03.960Z,99268.13
2024-04-18T14:04:31.441Z,99271.00
2024-04-18T14:06:58.603Z,99267.69
2024-04-18T14:09:34.961Z,99275.06
2024-04-18T14:12:01.816Z,99272.63
2024-04-18T14:14:29.792Z,99285.13
2024-04-18T14:17:15.208Z,99267.91
2024-04-18T14:19:41.872Z,99271.59
2024-04-18T14:22:08.615Z,99274.66
2024-04-18T14:24:36.690Z,99264.06
2024-04-18T14:27:04.052Z,99259.78
2024-04-18T14:29:31.079Z,99263.50
2024-04-18T14:32:01.337Z,99261.91
2024-04-18T14:34:28.917Z,99263.25
2024-04-18T14:36:55.534Z,99261.91
2024-04-18T14:39:22.161Z,99266.94
2024-04-18T14:41:48.808Z,99274.19
2024-04-18T14:44:15.437Z,99270.16
2024-04-18T14:46:42.118Z,99267.13
2024-04-18T14:49:12.148Z,99265.13
2024-04-18T14:51:39.673Z,99265.31
2024-04-18T14:54:07.337Z,99258.69
2024-04-18T14:56:35.274Z,99261.13
2024-04-18T14:59:02.509Z,99255.56
2024-04-18T15:01:30.304Z,99255.94
2024-04-18T15:03:57.204Z,99258.13
2024-04-18T15:06:24.063Z,99260.84
2024-04-18T15:08:50.770Z,99240.09
2024-04-18T15:11:17.511Z,99246.47
2024-04-18T15:13:44.131Z,99248.91
2024-04-18T15:16:11.363Z,99256.38
2024-04-18T15:18:38.828Z,99258.34
2024-04-18T15:21:05.590Z,99262.94
2024-04-18T15:23:32.890Z,99265.69
2024-04-18T15:25:59.821Z,99266.38
2024-04-18T15:28:26.989Z,99261.97
2024-04-18T15:30:53.611Z,99261.00
2024-04-18T15:33:20.903Z,99257.06
2024-04-18T15:35:47.631Z,99258.03
2024-04-18T15:38:14.901Z,99260.69
2024-04-18T15:40:42.364Z,99266.09
2024-04-18T15:43:09.035Z,99260.03
2024-04-18T15:45:42.426Z,99256.75
2024-04-18T15:48:09.276Z,99253.63
2024-04-18T15:50:36.272Z,99254.72
2024-04-18T15:53:02.865Z,99252.16
2024-04-18T15:55:32.350Z,99248.38
2024-04-18T15:57:59.334Z,99261.59
2024-04-18T16:00:26.125Z,99255.91
2024-04-18T16:02:55.396Z,99251.94
2024-04-18T16:05:25.244Z,99260.88
2024-04-18T16:07:52.248Z,99269.25
2024-04-18T16:10:19.398Z,99276.72
2024-04-18T16:12:46.919Z,99278.69
2024-04-18T16:15:14.841Z,99285.31
2024-04-18T16:17:44.835Z,99284.09
2024-04-18T16:20:13.600Z,99286.38
2024-04-18T16:22:40.664Z,99286.44
2024-04-18T16:25:07.503Z,99291.31
2024-04-18T16:27:35.180Z,99298.91
2024-04-18T16:30:01.922Z,99297.06
2024-04-18T16:32:29.029Z,99298.28
2024-04-18T16:34:55.832Z,99304.53
2024-04-18T16:37:24.783Z,99300.09
2024-04-18T16:39:51.763Z,99298.03
2024-04-18T16:42:18.501Z,99293.28
2024-04-18T16:44:45.181Z,99300.25
2024-04-18T16:47:11.855Z,99294.84
2024-04-18T16:49:41.309Z,99297.16
2024-04-18T16:52:10.520Z,99290.22
2024-04-18T16:54:38.062Z,99284.19
2024-04-18T16:57:05.142Z,99286.66
2024-04-18T16:59:31.813Z,99288.38
2024-04-18T17:01:58.499Z,99288.28
2024-04-18T17:04:25.583Z,99289.16
2024-04-18T17:06:52.408Z,99298.19
2024-04-18T17:09:19.327Z,99296.16
2024-04-18T17:11:47.009Z,99297.25
2024-04-18T17:14:16.248Z,99304.59
2024-04-18T17:16:42.840Z,99312.53
2024-04-18T17:19:09.537Z,99310.31
2024-04-18T17:21:36.790Z,99311.94
2024-04-18T17:24:03.922Z,99312.97
2024-04-18T17:26:30.781Z,99321.97
2024-04-18T17:28:57.708Z,99313.66
2024-04-18T17:31:24.613Z,99313.97
2024-04-18T17:33:51.258Z,99315.63
2024-04-18T17:36:18.464Z,99314.97
2024-04-18T17:38:47.265Z,99308.50
2024-04-18T17:41:14.091Z,99312.28
2024-04-18T17:43:41.196Z,99307.28
2024-04-18T17:46:08.081Z,99322.88
2024-04-18T17:48:35.049Z,99320.72
2024-04-18T17:51:01.688Z,99321.06
2024-04-18T17:53:28.914Z,99321.69
2024-04-18T17:55:55.736Z,99327.94
2024-04-18T17:58:22.723Z,99328.28
2024-04-18T18:00:49.840Z,99331.38
2024-04-18T18:03:17.391Z,99334.16
2024-04-18T18:05:45.337Z,99326.00
2024-04-18T18:08:12.022Z,99333.34
2024-04-18T18:10:38.732Z,99340.44
2024-04-18T18:13:05.399Z,99340.56
2024-04-18T18:15:32.080Z,99341.81
2024-04-18T18:17:59.560Z,99334.53
2024-04-18T18:20:26.835Z,99343.19
2024-04-18T18:22:53.651Z,99340.34
2024-04-18T18:25:20.283Z,99341.50
2024-04-18T18:27:46.935Z,99344.63
2024-04-18T18:30:14.888Z,99341.19
2024-04-18T18:32:42.238Z,99339.94
2024-04-18T18:35:09.702Z,99345.44
2024-04-18T18:37:36.625Z,99345.00
2024-04-18T18:40:05.469Z,99339.91
2024-04-18T18:42:32.198Z,99346.94
2024-04-18T18:44:58.900Z,99348.72
2024-04-18T18:47:25.716Z,99338.34
2024-04-18T18:49:52.496Z,99333.94
2024-04-18T18:52:20.483Z,99341.59
2024-04-18T18:54:47.700Z,99339.84
2024-04-18T18:57:14.577Z,99339.72
2024-04-18T18:59:45.428Z,99340.59
2024-04-18T19:02:12.728Z,99343.13
2024-04-18T19:04:40.564Z,99342.13
2024-04-18T19:07:07.250Z,99341.84
2024-04-18T19:09:34.023Z,99335.44
2024-04-18T19:12:00.818Z,99339.66
2024-04-18T19:14:28.270Z,99337.97
2024-04-18T19:16:55.402Z,99337.69
2024-04-18T19:19:25.368Z,99341.25
2024-04-18T19:21:52.727Z,99336.41
2024-04-18T19:24:19.677Z,99339.78
2024-04-18T19:26:47.764Z,99335.16
2024-04-18T19:29:20.678Z,99327.72
2024-04-18T19:31:53.855Z,99339.75
2024-04-18T19:34:20.560Z,99328.19
2024-04-18T19:36:47.888Z,99330.63
2024-04-18T19:39:15.764Z,99325.13
2024-04-18T19:41:42.601Z,99321.66
2024-04-18T19:44:09.535Z,99322.63
2024-04-18T19:46:36.243Z,99323.34
2024-04-18T19:49:03.799Z,99318.94
2024-04-18T19:51:31.467Z,99317.03
2024-04-18T19:53:58.166Z,99329.91
2024-04-18T19:56:24.883Z,99334.66
2024-04-18T19:58:51.486Z,99333.50
2024-04-18T20:01:18.196Z,99333.31
2024-04-18T20:03:45.004Z,99325.72
2024-04-18T20:06:11.712Z,99322.72
2024-04-18T20:08:38.446Z,99321.25
2024-04-18T20:11:05.110Z,99328.91
2024-04-18T20:13:31.753Z,99327.69
2024-04-18T20:15:58.375Z,99328.72
2024-04-18T20:18:25.097Z,99321.28
2024-04-18T20:20:51.769Z,99315.94
2024-04-18T20:23:18.914Z,99317.53
2024-04-18T20:25:45.633Z,99316.69
2024-04-18T20:28:13.135Z,99311.72
2024-04-18T20:30:39.895Z,99312.69
2024-04-18T20:33:06.927Z,99314.75
2024-04-18T20:35:33.716Z,99313.50
2024-04-18T20:38:00.411Z,99313.31
2024-04-18T20:40:27.073Z,99308.91
2024-04-18T20:42:53.839Z,99316.22
2024-04-18T20:45:20.457Z,99310.66
2024-04-18T20:47:47.287Z,99308.47
2024-04-18T20:50:14.133Z,99310.56
2024-04-18T20:52:40.806Z,99309.03
2024-04-18T20:55:07.920Z,99314.75
2024-04-18T20:57:34.727Z,99303.38
2024-04-18T21:00:01.435Z,99311.72
2024-04-18T21:02:28.352Z,99306.03
2024-04-18T21:04:55.173Z,99304.91
2024-04-18T21:07:23.461Z,99304.06
2024-04-18T21:09:50.064Z,99307.97
2024-04-18T21:12:17.328Z,99305.06
2024-04-18T21:14:44.036Z,99297.69
2024-04-18T21:17:10.698Z,99302.72
2024-04-18T21:19:37.401Z,99300.19
2024-04-18T21:22:05.452Z,99294.47
2024-04-18T21:24:32.260Z,99298.13
2024-04-18T21:26:58.931Z,99295.19
2024-04-18T21:29:25.551Z,99297.84
2024-04-18T21:31:52.137Z,99298.81
2024-04-18T21:34:18.777Z,99288.41
2024-04-18T21:36:45.554Z,99289.22
2024-04-18T21:39:13.182Z,99282.00
2024-04-18T21:41:41.260Z,99278.53
2024-04-18T21:44:07.880Z,99280.28
2024-04-18T21:46:34.481Z,99275.44
2024-04-18T21:49:01.260Z,99275.59
2024-04-18T21:51:28.594Z,99273.63
2024-04-18T21:53:55.426Z,99262.38
2024-04-18T21:56:22.062Z,99264.22
2024-04-18T21:58:53.226Z,99265.56
2024-04-18T22:01:19.916Z,99263.34
2024-04-18T22:03:46.620Z,99259.91
2024-04-18T22:06:13.278Z,99270.34
2024-04-18T22:08:39.869Z,99256.78
2024-04-18T22:11:06.545Z,99254.16
2024-04-18T22:13:33.298Z,99258.06
2024-04-18T22:15:59.913Z,99255.13
2024-04-18T22:18:26.875Z,99250.56
2024-04-18T22:20:56.310Z,99254.84
2024-04-18T22:23:23.325Z,99245.28
2024-04-18T22:25:50.031Z,99248.44
2024-04-18T22:28:16.767Z,99246.66
2024-04-18T22:30:44.743Z,99246.22
2024-04-18T22:33:11.568Z,99261.09
2024-04-18T22:35:39.889Z,99253.69
2024-04-18T22:38:06.547Z,99256.53
2024-04-18T22:40:33.186Z,99246.91
2024-04-18T22:42:59.996Z,99234.25
2024-04-18T22:45:26.864Z,99235.63
2024-04-18T22:47:53.560Z,99239.69
2024-04-18T22:50:20.204Z,99239.31
2024-04-18T22:52:46.830Z,99236.56
2024-04-18T22:55:14.502Z,99228.19
2024-04-18T22:57:41.290Z,99227.66
2024-04-18T23:00:09.790Z,99226.69
2024-04-18T23:02:36.507Z,99221.53
2024-04-18T23:05:04.400Z,99211.47
2024-04-18T23:07:30.977Z,99220.50
2024-04-18T23:09:58.780Z,99206.53
2024-04-18T23:12:25.396Z,99214.97
2024-04-18T23:14:52.029Z,99211.09
2024-04-18T23:17:18.697Z,99210.19
2024-04-18T23:19:45.388Z,99216.88
2024-04-18T23:22:12.019Z,99218.69
2024-04-18T23:24:39.637Z,99211.13
2024-04-18T23:27:06.303Z,99208.69
2024-04-18T23:29:33.041Z,99196.59
2024-04-18T23:31:59.979Z,99204.19
2024-04-18T23:34:26.937Z,99195.28
2024-04-18T23:36:53.574Z,99202.03
2024-04-18T23:39:20.249Z,99197.09
2024-04-18T23:41:46.878Z,99186.25
2024-04-18T23:44:13.492Z,99188.72
2024-04-18T23:46:40.246Z,99188.78
2024-04-18T23:49:06.932Z,99188.97
2024-04-18T23:51:33.636Z,99190.25
2024-04-18T23:54:00.246Z,99183.88
2024-04-18T23:56:26.887Z,99177.81
2024-04-18T23:58:53.978Z,99171.69
